createdAt,value
2017-08-11T00:00:15.373Z,99.99
2017-08-11T00:01:15.371Z,99.99
2017-08-11T00:02:15.060Z,99.99
2017-08-11T00:03:15.361Z,99.99
2017-08-11T00:04:15.361Z,99.99
2017-08-11T00:05:15.351Z,99.99
2017-08-11T00:06:15.045Z,99.99
2017-08-11T00:07:15.035Z,99.99
2017-08-11T00:08:15.032Z,99.99
2017-08-11T00:09:15.333Z,99.99
2017-08-11T00:10:15.328Z,99.99
2017-08-11T00:11:15.331Z,99.99
2017-08-11T00:12:15.013Z,99.99
2017-08-11T00:13:15.008Z,99.99
2017-08-11T00:14:15.310Z,99.99
2017-08-11T00:15:14.996Z,99.99
2017-08-11T00:16:15.014Z,99.99
2017-08-11T00:17:14.989Z,99.99
2017-08-11T00:18:14.981Z,99.99
2017-08-11T00:19:14.977Z,99.99
2017-08-11T00:20:15.284Z,99.99
2017-08-11T00:21:14.970Z,99.99
2017-08-11T00:22:15.270Z,99.99
2017-08-11T00:23:15.264Z,99.99
2017-08-11T00:24:14.955Z,99.99
2017-08-11T00:25:15.256Z,99.99
2017-08-11T00:26:15.251Z,99.99
2017-08-11T00:27:15.244Z,99.99
2017-08-11T00:28:14.935Z,99.99
2017-08-11T00:29:15.233Z,99.99
2017-08-11T00:30:14.925Z,99.99
2017-08-11T00:31:14.922Z,99.99
2017-08-11T00:32:15.218Z,99.99
2017-08-11T00:33:14.910Z,99.99
2017-08-11T00:34:14.906Z,99.99
2017-08-11T00:35:14.900Z,99.99
2017-08-11T00:36:15.203Z,99.99
2017-08-11T00:37:15.196Z,99.99
2017-08-11T00:38:15.189Z,99.99
2017-08-11T00:39:14.881Z,99.99
2017-08-11T00:40:14.877Z,99.99
2017-08-11T00:41:15.176Z,99.99
2017-08-11T00:42:15.175Z,99.99
2017-08-11T00:43:15.166Z,99.99
2017-08-11T00:44:15.160Z,99.99
2017-08-11T00:45:15.154Z,99.99
2017-08-11T00:46:15.153Z,99.99
2017-08-11T00:47:15.150Z,99.99
2017-08-11T00:48:14.839Z,99.99
2017-08-11T00:49:15.142Z,99.99
2017-08-11T00:50:15.132Z,99.99
2017-08-11T00:51:15.126Z,99.99
2017-08-11T00:52:15.128Z,99.99
2017-08-11T00:53:15.118Z,99.99
2017-08-11T00:54:15.115Z,99.99
2017-08-11T00:55:15.108Z,99.99
2017-08-11T00:56:15.103Z,99.99
2017-08-11T00:57:15.099Z,99.99
2017-08-11T00:58:15.093Z,99.99
2017-08-11T00:59:15.091Z,99.99
2017-08-11T01:00:15.083Z,99.99
2017-08-11T01:01:15.083Z,99.99
2017-08-11T01:02:15.073Z,99.99
2017-08-11T01:03:15.066Z,99.99
2017-08-11T01:04:15.066Z,99.99
2017-08-11T01:05:15.065Z,99.99
2017-08-11T01:06:15.059Z,99.99
2017-08-11T01:07:15.052Z,99.99
2017-08-11T01:08:15.044Z,99.99
2017-08-11T01:09:15.037Z,99.99
2017-08-11T01:10:15.036Z,99.99
2017-08-11T01:11:15.029Z,99.99
2017-08-11T01:12:15.025Z,99.99
2017-08-11T01:13:14.715Z,99.99
2017-08-11T01:14:15.014Z,99.99
2017-08-11T01:15:15.008Z,99.99
2017-08-11T01:16:14.702Z,99.99
2017-08-11T01:17:15.005Z,99.99
2017-08-11T01:18:14.995Z,99.99
2017-08-11T01:19:14.991Z,99.99
2017-08-11T01:20:14.987Z,99.99
2017-08-11T01:21:14.980Z,99.99
2017-08-11T01:22:14.979Z,99.99
2017-08-11T01:23:14.968Z,99.99
2017-08-11T01:24:14.963Z,99.99
2017-08-11T01:25:14.963Z,99.99
2017-08-11T01:26:14.952Z,99.99
2017-08-11T01:27:14.950Z,99.99
2017-08-11T01:28:14.947Z,99.99
2017-08-11T01:29:14.944Z,99.99
2017-08-11T01:30:14.935Z,99.99
2017-08-11T01:31:14.931Z,99.99
2017-08-11T01:32:14.926Z,99.99
2017-08-11T01:33:14.923Z,99.99
2017-08-11T01:34:14.919Z,99.99
2017-08-11T01:35:14.914Z,99.99
2017-08-11T01:36:14.601Z,99.99
2017-08-11T01:37:14.907Z,99.99
2017-08-11T01:38:14.898Z,99.99
2017-08-11T01:39:14.892Z,99.99
2017-08-11T01:40:14.887Z,99.99
2017-08-11T01:41:14.881Z,99.99
2017-08-11T01:42:14.877Z,99.99
2017-08-11T01:43:14.875Z,99.99
2017-08-11T01:44:14.867Z,99.99
2017-08-11T01:45:14.865Z,99.99
2017-08-11T01:46:14.860Z,99.99
2017-08-11T01:47:14.850Z,99.99
2017-08-11T01:48:14.849Z,99.99
2017-08-11T01:49:14.840Z,99.99
2017-08-11T01:50:14.836Z,99.99
2017-08-11T01:51:14.830Z,99.99
2017-08-11T01:52:14.830Z,99.99
2017-08-11T01:53:14.821Z,99.99
2017-08-11T01:54:14.816Z,99.99
2017-08-11T01:55:14.818Z,99.99
2017-08-11T01:56:14.809Z,99.99
2017-08-11T01:57:14.800Z,99.99
2017-08-11T01:58:14.794Z,99.99
2017-08-11T01:59:14.804Z,99.99
2017-08-11T02:00:14.790Z,99.99
2017-08-11T02:01:14.780Z,99.99
2017-08-11T02:02:14.776Z,99.99
2017-08-11T02:03:14.776Z,99.99
2017-08-11T02:04:14.768Z,99.99
2017-08-11T02:05:14.762Z,99.99
2017-08-11T02:06:14.762Z,99.99
2017-08-11T02:07:14.755Z,99.99
2017-08-11T02:08:14.748Z,99.99
2017-08-11T02:09:14.744Z,99.99
2017-08-11T02:10:14.741Z,99.99
2017-08-11T02:11:14.731Z,99.99
2017-08-11T02:12:14.728Z,99.99
2017-08-11T02:13:14.724Z,99.99
2017-08-11T02:14:14.716Z,99.99
2017-08-11T02:15:14.717Z,99.99
2017-08-11T02:16:14.710Z,99.99
2017-08-11T02:17:14.705Z,99.99
2017-08-11T02:18:14.698Z,99.99
2017-08-11T02:19:14.693Z,99.99
2017-08-11T02:20:14.686Z,99.99
2017-08-11T02:21:14.683Z,99.99
2017-08-11T02:22:14.676Z,99.99
2017-08-11T02:23:14.675Z,99.99
2017-08-11T02:24:14.670Z,99.99
2017-08-11T02:25:14.664Z,99.99
2017-08-11T02:26:14.660Z,99.99
2017-08-11T02:27:14.654Z,99.99
2017-08-11T02:28:14.647Z,99.99
2017-08-11T02:29:14.640Z,99.99
2017-08-11T02:30:14.644Z,99.99
2017-08-11T02:31:14.659Z,99.99
2017-08-11T02:32:14.644Z,99.99
2017-08-11T02:33:14.622Z,99.99
2017-08-11T02:34:14.617Z,99.99
2017-08-11T02:35:14.614Z,99.99
2017-08-11T02:36:14.608Z,99.99
2017-08-11T02:37:14.600Z,99.99
2017-08-11T02:38:14.596Z,99.99
2017-08-11T02:39:14.287Z,99.99
2017-08-11T02:40:14.591Z,99.99
2017-08-11T02:41:14.588Z,99.99
2017-08-11T02:42:14.581Z,99.99
2017-08-11T02:43:14.576Z,99.99
2017-08-11T02:44:14.567Z,99.99
2017-08-11T02:45:14.258Z,99.99
2017-08-11T02:46:14.557Z,99.99
2017-08-11T02:47:14.554Z,99.99
2017-08-11T02:48:14.549Z,99.99
2017-08-11T02:49:14.552Z,99.99
2017-08-11T02:50:14.537Z,99.99
2017-08-11T02:51:14.534Z,99.99
2017-08-11T02:52:14.530Z,99.99
2017-08-11T02:53:14.521Z,99.99
2017-08-11T02:54:14.524Z,99.99
2017-08-11T02:55:14.515Z,99.99
2017-08-11T02:56:14.510Z,99.99
2017-08-11T02:57:14.502Z,99.99
2017-08-11T02:58:14.504Z,99.99
2017-08-11T02:59:14.493Z,99.99
2017-08-11T03:00:14.489Z,99.99
2017-08-11T03:01:14.488Z,99.99
2017-08-11T03:02:14.478Z,99.99
2017-08-11T03:03:14.474Z,99.99
2017-08-11T03:04:14.472Z,99.99
2017-08-11T03:05:14.462Z,99.99
2017-08-11T03:06:14.456Z,99.99
2017-08-11T03:07:14.458Z,99.99
2017-08-11T03:08:14.447Z,99.99
2017-08-11T03:09:14.442Z,99.99
2017-08-11T03:10:14.437Z,99.99
2017-08-11T03:11:14.435Z,99.99
2017-08-11T03:12:14.123Z,99.99
2017-08-11T03:13:14.422Z,99.99
2017-08-11T03:14:14.418Z,99.99
2017-08-11T03:15:14.412Z,99.99
2017-08-11T03:16:14.409Z,99.99
2017-08-11T03:17:14.403Z,99.99
2017-08-11T03:18:14.400Z,99.99
2017-08-11T03:19:14.392Z,99.99
2017-08-11T03:20:14.392Z,99.99
2017-08-11T03:21:14.380Z,99.99
2017-08-11T03:22:14.379Z,99.99
2017-08-11T03:23:14.374Z,99.99
2017-08-11T03:24:14.369Z,99.99
2017-08-11T03:25:14.363Z,99.99
2017-08-11T03:26:14.357Z,99.99
2017-08-11T03:27:14.379Z,99.99
2017-08-11T03:28:14.344Z,99.99
2017-08-11T03:29:14.343Z,99.99
2017-08-11T03:30:14.339Z,99.99
2017-08-11T03:31:14.032Z,99.99
2017-08-11T03:32:14.326Z,99.99
2017-08-11T03:33:14.323Z,99.99
2017-08-11T03:34:14.332Z,99.99
2017-08-11T03:35:14.313Z,99.99
2017-08-11T03:36:14.306Z,99.99
2017-08-11T03:37:14.303Z,99.99
2017-08-11T03:38:14.297Z,99.99
2017-08-11T03:39:14.294Z,99.99
2017-08-11T03:40:14.287Z,99.99
2017-08-11T03:41:14.285Z,99.99
2017-08-11T03:42:14.277Z,99.99
2017-08-11T03:43:14.270Z,99.99
2017-08-11T03:44:14.266Z,99.99
2017-08-11T03:45:14.259Z,99.99
2017-08-11T03:46:14.259Z,99.99
2017-08-11T03:47:14.251Z,99.99
2017-08-11T03:48:14.251Z,99.99
2017-08-11T03:49:14.242Z,99.99
2017-08-11T03:50:13.932Z,99.99
2017-08-11T03:51:14.236Z,99.99
2017-08-11T03:52:14.224Z,99.99
2017-08-11T03:53:14.220Z,99.99
2017-08-11T03:54:14.216Z,99.99
2017-08-11T03:55:13.908Z,99.99
2017-08-11T03:56:14.207Z,99.99
2017-08-11T03:57:14.202Z,99.99
2017-08-11T03:58:14.198Z,99.99
2017-08-11T03:59:14.189Z,99.99
2017-08-11T04:00:14.189Z,99.99
2017-08-11T04:01:14.183Z,99.99
2017-08-11T04:02:14.176Z,99.99
2017-08-11T04:03:14.173Z,99.99
2017-08-11T04:04:14.168Z,99.99
2017-08-11T04:05:14.161Z,99.99
2017-08-11T04:06:14.154Z,99.99
2017-08-11T04:07:14.149Z,99.99
2017-08-11T04:08:14.150Z,99.99
2017-08-11T04:09:14.144Z,99.99
2017-08-11T04:10:14.136Z,99.99
2017-08-11T04:11:14.129Z,99.99
2017-08-11T04:12:14.123Z,99.99
2017-08-11T04:13:14.123Z,99.99
2017-08-11T04:14:14.112Z,99.99
2017-08-11T04:15:14.112Z,99.99
2017-08-11T04:16:14.104Z,99.99
2017-08-11T04:17:13.795Z,99.99
2017-08-11T04:18:14.095Z,99.99
2017-08-11T04:19:13.785Z,99.99
2017-08-11T04:20:14.086Z,99.99
2017-08-11T04:21:13.775Z,99.99
2017-08-11T04:22:13.776Z,99.99
2017-08-11T04:23:14.072Z,99.99
2017-08-11T04:24:14.068Z,99.99
2017-08-11T04:25:14.060Z,99.99
2017-08-11T04:26:14.057Z,99.99
2017-08-11T04:27:14.047Z,99.99
2017-08-11T04:28:14.045Z,99.99
2017-08-11T04:29:14.039Z,99.99
2017-08-11T04:30:14.034Z,99.99
2017-08-11T04:31:14.028Z,99.99
2017-08-11T04:32:14.023Z,99.99
2017-08-11T04:33:14.017Z,99.99
2017-08-11T04:34:14.013Z,99.99
2017-08-11T04:35:14.007Z,99.99
2017-08-11T04:36:14.004Z,99.99
2017-08-11T04:37:13.695Z,99.99
2017-08-11T04:38:13.992Z,99.99
2017-08-11T04:39:13.990Z,99.99
2017-08-11T04:40:13.981Z,99.99
2017-08-11T04:41:13.978Z,99.99
2017-08-11T04:42:13.972Z,99.99
2017-08-11T04:43:13.666Z,99.99
2017-08-11T04:44:13.658Z,99.99
2017-08-11T04:45:13.956Z,99.99
2017-08-11T04:46:13.957Z,99.99
2017-08-11T04:47:13.952Z,99.99
2017-08-11T04:48:13.638Z,99.99
2017-08-11T04:49:13.938Z,99.99
2017-08-11T04:50:13.934Z,99.99
2017-08-11T04:51:13.622Z,99.99
2017-08-11T04:52:13.924Z,99.99
2017-08-11T04:53:13.915Z,99.99
2017-08-11T04:54:13.918Z,99.99
2017-08-11T04:55:13.908Z,99.99
2017-08-11T04:56:13.902Z,99.99
2017-08-11T04:57:13.896Z,99.99
2017-08-11T04:58:13.892Z,99.99
2017-08-11T04:59:13.583Z,99.99
2017-08-11T05:00:13.917Z,99.99
2017-08-11T05:01:13.877Z,99.99
2017-08-11T05:02:13.873Z,99.99
2017-08-11T05:03:13.866Z,99.99
2017-08-11T05:04:13.863Z,99.99
2017-08-11T05:05:13.858Z,99.99
2017-08-11T05:06:13.850Z,99.99
2017-08-11T05:07:13.845Z,99.99
2017-08-11T05:08:13.842Z,99.99
2017-08-11T05:09:13.533Z,99.99
2017-08-11T05:10:13.834Z,99.99
2017-08-11T05:11:13.828Z,99.99
2017-08-11T05:12:13.514Z,99.99
2017-08-11T05:13:13.817Z,99.99
2017-08-11T05:14:13.810Z,99.99
2017-08-11T05:15:13.802Z,99.99
2017-08-11T05:16:13.801Z,99.99
2017-08-11T05:17:13.797Z,99.99
2017-08-11T05:18:13.788Z,99.99
2017-08-11T05:19:13.784Z,99.99
2017-08-11T05:20:13.475Z,99.99
2017-08-11T05:21:13.776Z,99.99
2017-08-11T05:22:13.770Z,99.99
2017-08-11T05:23:13.766Z,99.99
2017-08-11T05:24:13.758Z,99.99
2017-08-11T05:25:13.755Z,99.99
2017-08-11T05:26:13.748Z,99.99
2017-08-11T05:27:13.743Z,99.99
2017-08-11T05:28:13.740Z,99.99
2017-08-11T05:29:13.730Z,99.99
2017-08-11T05:30:13.727Z,99.99
2017-08-11T05:31:13.724Z,99.99
2017-08-11T05:32:13.720Z,99.99
2017-08-11T05:33:13.714Z,99.99
2017-08-11T05:34:13.710Z,99.99
2017-08-11T05:35:13.702Z,99.99
2017-08-11T05:36:13.698Z,99.99
2017-08-11T05:37:13.694Z,99.99
2017-08-11T05:38:13.688Z,99.99
2017-08-11T05:39:13.687Z,99.99
2017-08-11T05:40:13.373Z,99.99
2017-08-11T05:41:13.674Z,99.99
2017-08-11T05:42:13.364Z,99.99
2017-08-11T05:43:13.671Z,99.99
2017-08-11T05:44:13.654Z,99.99
2017-08-11T05:45:13.652Z,99.99
2017-08-11T05:46:13.650Z,99.99
2017-08-11T05:47:13.642Z,99.99
2017-08-11T05:48:13.328Z,99.99
2017-08-11T05:49:13.634Z,99.99
2017-08-11T05:50:13.626Z,99.99
2017-08-11T05:51:13.622Z,99.99
2017-08-11T05:52:13.618Z,99.99
2017-08-11T05:53:13.612Z,99.99
2017-08-11T05:54:13.606Z,99.99
2017-08-11T05:55:13.604Z,99.99
2017-08-11T05:56:13.600Z,99.99
2017-08-11T05:57:13.592Z,99.99
2017-08-11T05:58:13.587Z,99.99
2017-08-11T05:59:13.581Z,99.99
2017-08-11T06:00:13.584Z,99.99
2017-08-11T06:01:13.579Z,99.99
2017-08-11T06:02:13.572Z,99.99
2017-08-11T06:03:13.562Z,99.99
2017-08-11T06:04:13.563Z,99.99
2017-08-11T06:05:13.556Z,99.99
2017-08-11T06:06:13.551Z,99.99
2017-08-11T06:07:13.548Z,99.99
2017-08-11T06:08:13.541Z,99.99
2017-08-11T06:09:13.534Z,99.99
2017-08-11T06:10:13.226Z,99.99
2017-08-11T06:11:13.527Z,99.99
2017-08-11T06:12:13.519Z,99.99
2017-08-11T06:13:13.519Z,99.99
2017-08-11T06:14:13.512Z,99.99
2017-08-11T06:15:13.505Z,99.99
2017-08-11T06:16:13.501Z,99.99
2017-08-11T06:17:13.494Z,99.99
2017-08-11T06:18:13.492Z,99.99
2017-08-11T06:19:13.491Z,99.99
2017-08-11T06:20:13.481Z,99.99
2017-08-11T06:21:13.476Z,99.99
2017-08-11T06:22:13.466Z,99.99
2017-08-11T06:23:13.465Z,99.99
2017-08-11T06:24:13.459Z,99.99
2017-08-11T06:25:13.453Z,99.99
2017-08-11T06:26:13.447Z,99.99
2017-08-11T06:27:13.446Z,99.99
2017-08-11T06:28:13.441Z,99.99
2017-08-11T06:29:13.436Z,99.99
2017-08-11T06:30:13.433Z,99.99
2017-08-11T06:31:13.424Z,99.99
2017-08-11T06:32:13.423Z,99.99
2017-08-11T06:33:13.414Z,99.99
2017-08-11T06:34:13.411Z,99.99
2017-08-11T06:35:13.413Z,99.99
2017-08-11T06:36:13.094Z,99.99
2017-08-11T06:37:13.399Z,99.99
2017-08-11T06:38:13.392Z,99.99
2017-08-11T06:39:13.386Z,99.99
2017-08-11T06:40:13.381Z,99.99
2017-08-11T06:41:13.378Z,99.99
2017-08-11T06:42:13.370Z,99.99
2017-08-11T06:43:13.367Z,99.99
2017-08-11T06:44:13.057Z,99.99
2017-08-11T06:45:13.357Z,99.99
2017-08-11T06:46:13.352Z,99.99
2017-08-11T06:47:13.351Z,99.99
2017-08-11T06:48:13.341Z,99.99
2017-08-11T06:49:13.333Z,99.99
2017-08-11T06:50:13.025Z,99.99
2017-08-11T06:51:13.325Z,99.99
2017-08-11T06:52:13.322Z,99.99
2017-08-11T06:53:13.317Z,99.99
2017-08-11T06:54:13.315Z,99.99
2017-08-11T06:55:13.311Z,99.99
2017-08-11T06:56:13.306Z,99.99
2017-08-11T06:57:13.297Z,99.99
2017-08-11T06:58:13.294Z,99.99
2017-08-11T06:59:13.289Z,99.99
2017-08-11T07:00:13.349Z,99.99
2017-08-11T07:01:13.280Z,99.99
2017-08-11T07:02:13.273Z,99.99
2017-08-11T07:03:13.268Z,99.99
2017-08-11T07:04:13.265Z,99.99
2017-08-11T07:05:13.255Z,99.66
2017-08-11T07:06:13.255Z,99.76
2017-08-11T07:07:13.255Z,99.19
2017-08-11T07:08:13.242Z,99.23
2017-08-11T07:09:13.240Z,99.09
2017-08-11T07:10:12.930Z,99.09
2017-08-11T07:11:13.230Z,99.28
2017-08-11T07:12:13.223Z,98.61
2017-08-11T07:13:13.216Z,99.09
2017-08-11T07:14:13.217Z,98.99
2017-08-11T07:15:13.206Z,98.8
2017-08-11T07:16:13.206Z,98.61
2017-08-11T07:17:13.232Z,98.9
2017-08-11T07:18:13.192Z,98.9
2017-08-11T07:19:13.190Z,98.04
2017-08-11T07:20:13.180Z,98.52
2017-08-11T07:21:13.175Z,98.75
2017-08-11T07:22:13.172Z,98.57
2017-08-11T07:23:13.171Z,98.75
2017-08-11T07:24:13.165Z,98.57
2017-08-11T07:25:13.159Z,97.99
2017-08-11T07:26:13.154Z,98.18
2017-08-11T07:27:13.150Z,98.28
2017-08-11T07:28:13.145Z,98.24
2017-08-11T07:29:13.139Z,97.95
2017-08-11T07:30:13.132Z,98.24
2017-08-11T07:31:13.128Z,97.95
2017-08-11T07:32:13.128Z,97.37
2017-08-11T07:33:13.124Z,97.37
2017-08-11T07:34:13.112Z,97.8
2017-08-11T07:35:13.111Z,96.94
2017-08-11T07:36:13.107Z,97.61
2017-08-11T07:37:13.099Z,96.84
2017-08-11T07:38:13.118Z,96.47
2017-08-11T07:39:13.093Z,96.47
2017-08-11T07:40:13.093Z,95.31
2017-08-11T07:41:13.081Z,95.46
2017-08-11T07:42:13.076Z,95.07
2017-08-11T07:43:13.073Z,94.5
2017-08-11T07:44:13.069Z,94.79
2017-08-11T07:45:12.758Z,94.02
2017-08-11T07:46:13.057Z,93.54
2017-08-11T07:47:13.052Z,93.74
2017-08-11T07:48:13.048Z,93.74
2017-08-11T07:49:13.048Z,92.87
2017-08-11T07:50:13.040Z,93.07
2017-08-11T07:51:13.033Z,92.54
2017-08-11T07:52:13.030Z,91.58
2017-08-11T07:53:13.027Z,91.1
2017-08-11T07:54:13.032Z,90.72
2017-08-11T07:55:13.020Z,90.14
2017-08-11T07:56:12.706Z,89.95
2017-08-11T07:57:13.005Z,89.57
2017-08-11T07:58:13.005Z,88.9
2017-08-11T07:59:12.995Z,88.99
2017-08-11T08:00:12.992Z,88.61
2017-08-11T08:01:12.990Z,88.7
2017-08-11T08:02:12.983Z,88.61
2017-08-11T08:03:12.980Z,88.03
2017-08-11T08:04:12.975Z,87.17
2017-08-11T08:05:12.976Z,86.21
2017-08-11T08:06:12.660Z,86.31
2017-08-11T08:07:12.960Z,85.69
2017-08-11T08:08:12.662Z,85.79
2017-08-11T08:09:12.953Z,85.31
2017-08-11T08:10:12.644Z,84.83
2017-08-11T08:11:12.944Z,85.6
2017-08-11T08:12:12.938Z,85.88
2017-08-11T08:13:12.935Z,85.79
2017-08-11T08:14:12.928Z,85.31
2017-08-11T08:15:12.931Z,85.98
2017-08-11T08:16:12.918Z,85.21
2017-08-11T08:17:12.914Z,85.88
2017-08-11T08:18:12.913Z,85.88
2017-08-11T08:19:12.905Z,85.6
2017-08-11T08:20:12.899Z,85.31
2017-08-11T08:21:12.898Z,85.02
2017-08-11T08:22:12.891Z,85.21
2017-08-11T08:23:12.890Z,85.88
2017-08-11T08:24:12.881Z,85.79
2017-08-11T08:25:12.877Z,85.12
2017-08-11T08:26:12.569Z,85.25
2017-08-11T08:27:12.870Z,85.25
2017-08-11T08:28:12.869Z,85.25
2017-08-11T08:29:12.859Z,85.74
2017-08-11T08:30:12.855Z,85.93
2017-08-11T08:31:12.851Z,85.74
2017-08-11T08:32:12.844Z,85.93
2017-08-11T08:33:12.845Z,85.93
2017-08-11T08:34:12.836Z,85.64
2017-08-11T08:35:12.832Z,85.74
2017-08-11T08:36:12.829Z,85.93
2017-08-11T08:37:12.820Z,86.02
2017-08-11T08:38:12.514Z,85.16
2017-08-11T08:39:12.812Z,84.3
2017-08-11T08:40:12.811Z,84.55
2017-08-11T08:41:12.802Z,84.55
2017-08-11T08:42:12.798Z,83.59
2017-08-11T08:43:12.795Z,83.59
2017-08-11T08:44:12.790Z,84.45
2017-08-11T08:45:12.791Z,84.16
2017-08-11T08:46:12.778Z,84.26
2017-08-11T08:47:12.776Z,84.74
2017-08-11T08:48:12.769Z,84.83
2017-08-11T08:49:12.766Z,85.21
2017-08-11T08:50:12.762Z,84.92
2017-08-11T08:51:12.756Z,85.21
2017-08-11T08:52:12.755Z,85.31
2017-08-11T08:53:12.747Z,85.06
2017-08-11T08:54:12.742Z,85.31
2017-08-11T08:55:12.739Z,85.69
2017-08-11T08:56:12.732Z,85.88
2017-08-11T08:57:12.730Z,85.88
2017-08-11T08:58:12.416Z,85.93
2017-08-11T08:59:12.718Z,85.54
2017-08-11T09:00:12.715Z,85.54
2017-08-11T09:01:12.710Z,85.74
2017-08-11T09:02:12.708Z,85.83
2017-08-11T09:03:12.699Z,85.54
2017-08-11T09:04:12.699Z,85.93
2017-08-11T09:05:12.694Z,85.64
2017-08-11T09:06:12.382Z,86.02
2017-08-11T09:07:12.379Z,85.74
2017-08-11T09:08:12.714Z,86.02
2017-08-11T09:09:12.674Z,85.74
2017-08-11T09:10:12.672Z,85.54
2017-08-11T09:11:12.666Z,85.74
2017-08-11T09:12:12.656Z,86.12
2017-08-11T09:13:12.653Z,85.74
2017-08-11T09:14:12.650Z,84.88
2017-08-11T09:15:12.647Z,85.25
2017-08-11T09:16:12.641Z,84.88
2017-08-11T09:17:12.637Z,84.78
2017-08-11T09:18:12.629Z,84.68
2017-08-11T09:19:12.625Z,84.26
2017-08-11T09:20:12.623Z,84.55
2017-08-11T09:21:12.614Z,84.26
2017-08-11T09:22:12.614Z,84.26
2017-08-11T09:23:12.300Z,84.45
2017-08-11T09:24:12.599Z,84.92
2017-08-11T09:25:12.598Z,84.74
2017-08-11T09:26:12.590Z,85.02
2017-08-11T09:27:12.586Z,85.31
2017-08-11T09:28:12.584Z,84.92
2017-08-11T09:29:12.580Z,85.6
2017-08-11T09:30:12.572Z,85.79
2017-08-11T09:31:12.570Z,85.98
2017-08-11T09:32:12.561Z,85.31
2017-08-11T09:33:12.558Z,85.88
2017-08-11T09:34:12.551Z,85.79
2017-08-11T09:35:12.554Z,85.12
2017-08-11T09:36:12.239Z,84.74
2017-08-11T09:37:12.536Z,84.55
2017-08-11T09:38:12.533Z,85.31
2017-08-11T09:39:12.528Z,84.88
2017-08-11T09:40:12.528Z,84.78
2017-08-11T09:41:12.521Z,84.78
2017-08-11T09:42:12.522Z,84.78
2017-08-11T09:43:12.511Z,84.88
2017-08-11T09:44:12.507Z,84.88
2017-08-11T09:45:12.504Z,84.78
2017-08-11T09:46:12.496Z,85.35
2017-08-11T09:47:12.493Z,85.25
2017-08-11T09:48:12.487Z,84.88
2017-08-11T09:49:12.481Z,85.25
2017-08-11T09:50:12.175Z,84.97
2017-08-11T09:51:12.475Z,85.16
2017-08-11T09:52:12.464Z,85.54
2017-08-11T09:53:12.466Z,84.78
2017-08-11T09:54:12.460Z,84.58
2017-08-11T09:55:12.454Z,84.92
2017-08-11T09:56:12.450Z,85.16
2017-08-11T09:57:12.448Z,85.35
2017-08-11T09:58:12.442Z,85.25
2017-08-11T09:59:12.436Z,84.88
2017-08-11T10:00:12.430Z,84.49
2017-08-11T10:01:12.423Z,84.3
2017-08-11T10:02:12.419Z,83.92
2017-08-11T10:03:12.418Z,84.49
2017-08-11T10:04:12.412Z,83.87
2017-08-11T10:05:12.410Z,83.78
2017-08-11T10:06:12.401Z,84.35
2017-08-11T10:07:12.398Z,84.26
2017-08-11T10:08:12.389Z,84.55
2017-08-11T10:09:12.384Z,84.49
2017-08-11T10:10:12.380Z,84.45
2017-08-11T10:11:12.379Z,84.49
2017-08-11T10:12:12.374Z,84.26
2017-08-11T10:13:12.369Z,84.45
2017-08-11T10:14:12.058Z,84.45
2017-08-11T10:15:12.355Z,84.26
2017-08-11T10:16:12.354Z,84.3
2017-08-11T10:17:12.347Z,84.39
2017-08-11T10:18:12.345Z,84.3
2017-08-11T10:19:12.340Z,84.39
2017-08-11T10:20:12.333Z,84.16
2017-08-11T10:21:12.328Z,84.39
2017-08-11T10:22:12.327Z,84.55
2017-08-11T10:23:12.322Z,84.49
2017-08-11T10:24:12.316Z,84.06
2017-08-11T10:25:12.312Z,84.39
2017-08-11T10:26:12.306Z,84.49
2017-08-11T10:27:11.994Z,84.39
2017-08-11T10:28:12.295Z,84.58
2017-08-11T10:29:12.289Z,84.58
2017-08-11T10:30:12.292Z,84.88
2017-08-11T10:31:12.280Z,84.68
2017-08-11T10:32:12.276Z,84.55
2017-08-11T10:33:11.967Z,84.64
2017-08-11T10:34:12.266Z,84.68
2017-08-11T10:35:11.958Z,85.41
2017-08-11T10:36:12.258Z,84.58
2017-08-11T10:37:12.255Z,84.2
2017-08-11T10:38:11.943Z,83.92
2017-08-11T10:39:12.249Z,83.82
2017-08-11T10:40:12.240Z,83.2
2017-08-11T10:41:11.931Z,83.3
2017-08-11T10:42:12.227Z,83.2
2017-08-11T10:43:11.917Z,83.39
2017-08-11T10:44:12.220Z,83.39
2017-08-11T10:45:12.216Z,83.78
2017-08-11T10:46:12.215Z,83.59
2017-08-11T10:47:12.203Z,83.78
2017-08-11T10:48:11.895Z,83.2
2017-08-11T10:49:11.887Z,83.39
2017-08-11T10:50:12.195Z,83.78
2017-08-11T10:51:11.880Z,83.39
2017-08-11T10:52:11.874Z,83.73
2017-08-11T10:53:12.179Z,83.59
2017-08-11T10:54:12.172Z,83.49
2017-08-11T10:55:12.168Z,83.2
2017-08-11T10:56:12.162Z,83.39
2017-08-11T10:57:12.157Z,83.39
2017-08-11T10:58:12.154Z,83.3
2017-08-11T10:59:12.148Z,83.3
2017-08-11T11:00:12.143Z,83.78
2017-08-11T11:01:12.135Z,83.59
2017-08-11T11:02:12.131Z,83.11
2017-08-11T11:03:12.128Z,82.82
2017-08-11T11:04:12.121Z,82.73
2017-08-11T11:05:12.117Z,82.63
2017-08-11T11:06:12.114Z,82.92
2017-08-11T11:07:12.111Z,83.01
2017-08-11T11:08:12.103Z,82.24
2017-08-11T11:09:12.099Z,82.06
2017-08-11T11:10:12.113Z,82.06
2017-08-11T11:11:12.086Z,82.06
2017-08-11T11:12:11.779Z,82.06
2017-08-11T11:13:12.076Z,81.86
2017-08-11T11:14:12.076Z,82.43
2017-08-11T11:15:12.073Z,82.24
2017-08-11T11:16:12.062Z,82.24
2017-08-11T11:17:12.058Z,81.86
2017-08-11T11:18:12.056Z,82.19
2017-08-11T11:19:12.051Z,82.48
2017-08-11T11:20:12.044Z,82.53
2017-08-11T11:21:12.041Z,82.57
2017-08-11T11:22:12.037Z,83.05
2017-08-11T11:23:12.028Z,83.05
2017-08-11T11:24:12.023Z,83.15
2017-08-11T11:25:12.020Z,82.92
2017-08-11T11:26:12.015Z,82.63
2017-08-11T11:27:11.705Z,82.92
2017-08-11T11:28:12.008Z,82.82
2017-08-11T11:29:12.004Z,82.82
2017-08-11T11:30:11.997Z,83.01
2017-08-11T11:31:11.990Z,82.92
2017-08-11T11:32:11.992Z,83.49
2017-08-11T11:33:11.983Z,83.2
2017-08-11T11:34:11.978Z,83.3
2017-08-11T11:35:11.970Z,83.73
2017-08-11T11:36:11.965Z,83.93
2017-08-11T11:37:11.960Z,83.73
2017-08-11T11:38:11.958Z,84.41
2017-08-11T11:39:11.950Z,84.31
2017-08-11T11:40:11.950Z,84.69
2017-08-11T11:41:11.944Z,84.69
2017-08-11T11:42:11.936Z,85.17
2017-08-11T11:43:11.932Z,85.17
2017-08-11T11:44:11.929Z,85.08
2017-08-11T11:45:11.926Z,85.27
2017-08-11T11:46:11.616Z,85.75
2017-08-11T11:47:11.920Z,85.75
2017-08-11T11:48:11.906Z,85.94
2017-08-11T11:49:11.903Z,86.22
2017-08-11T11:50:11.916Z,85.94
2017-08-11T11:51:11.890Z,86.22
2017-08-11T11:52:11.888Z,86.13
2017-08-11T11:53:11.888Z,86.32
2017-08-11T11:54:11.881Z,86.7
2017-08-11T11:55:11.570Z,86.7
2017-08-11T11:56:11.868Z,86.9
2017-08-11T11:57:11.860Z,86.99
2017-08-11T11:58:11.856Z,87.08
2017-08-11T11:59:11.548Z,87.37
2017-08-11T12:00:11.848Z,87.85
2017-08-11T12:01:11.840Z,87.76
2017-08-11T12:02:11.836Z,87.43
2017-08-11T12:03:11.833Z,87.9
2017-08-11T12:04:11.828Z,88.04
2017-08-11T12:05:11.824Z,88.48
2017-08-11T12:06:11.817Z,88.38
2017-08-11T12:07:11.509Z,88.48
2017-08-11T12:08:11.810Z,88.09
2017-08-11T12:09:11.497Z,88.57
2017-08-11T12:10:11.797Z,88.48
2017-08-11T12:11:11.796Z,88.95
2017-08-11T12:12:11.481Z,88.48
2017-08-11T12:13:11.781Z,88.76
2017-08-11T12:14:11.472Z,89.24
2017-08-11T12:15:11.771Z,88.76
2017-08-11T12:16:11.463Z,89.43
2017-08-11T12:17:11.460Z,88.95
2017-08-11T12:18:11.781Z,89.53
2017-08-11T12:19:11.446Z,89.72
2017-08-11T12:20:11.751Z,89.81
2017-08-11T12:21:11.745Z,90.2
2017-08-11T12:22:11.739Z,90.1
2017-08-11T12:23:11.425Z,90.3
2017-08-11T12:24:11.425Z,90.01
2017-08-11T12:25:11.418Z,90.58
2017-08-11T12:26:11.718Z,90.58
2017-08-11T12:27:11.714Z,90.58
2017-08-11T12:28:11.400Z,90.77
2017-08-11T12:29:11.403Z,90.67
2017-08-11T12:30:11.391Z,91.25
2017-08-11T12:31:11.387Z,90.87
2017-08-11T12:32:11.696Z,90.87
2017-08-11T12:33:11.380Z,90.96
2017-08-11T12:34:11.372Z,90.96
2017-08-11T12:35:11.368Z,91.35
2017-08-11T12:36:11.361Z,91.44
2017-08-11T12:37:11.357Z,91.53
2017-08-11T12:38:11.350Z,91.53
2017-08-11T12:39:11.653Z,91.25
2017-08-11T12:40:11.649Z,91.44
2017-08-11T12:41:11.338Z,91.73
2017-08-11T12:42:11.638Z,91.73
2017-08-11T12:43:11.633Z,92.21
2017-08-11T12:44:11.624Z,92.02
2017-08-11T12:45:11.622Z,92.4
2017-08-11T12:46:11.616Z,92.4
2017-08-11T12:47:11.307Z,92.49
2017-08-11T12:48:11.607Z,92.4
2017-08-11T12:49:11.599Z,92.4
2017-08-11T12:50:11.595Z,92.4
2017-08-11T12:51:11.593Z,92.59
2017-08-11T12:52:11.589Z,92.3
2017-08-11T12:53:11.582Z,92.49